Time;durP1;ratioP1;P1;durP2;ratioP2;P2;SDS_P1;SDS_P2;PMS_P1;PMS_P2;Temp;Humidity;BMP_temperature;BMP_pressure;BME280_temperature;BME280_humidity;BME280_pressure;Samples;Min_cycle;Max_cycle;Signal;HPM_P1;HPM_P2
2021/07/22 00:01:30;;;;;;;6.20;5.60;;;18.50;99.90;;;;;;5053053;28;20626;-69
2021/07/22 00:03:57;;;;;;;7.23;5.40;;;18.40;99.90;;;;;;5052936;28;20591;-70
2021/07/22 00:06:23;;;;;;;6.60;6.00;;;18.30;99.90;;;;;;5053110;28;20627;-69
2021/07/22 00:08:49;;;;;;;7.27;6.20;;;18.40;99.90;;;;;;5053191;28;21137;-69
2021/07/22 00:11:16;;;;;;;8.07;6.03;;;18.40;99.90;;;;;;5052756;28;20634;-69
2021/07/22 00:13:42;;;;;;;6.77;6.07;;;18.40;99.90;;;;;;5053035;28;20622;-70
2021/07/22 00:16:14;;;;;;;9.70;6.27;;;18.30;99.90;;;;;;5051549;28;21188;-70
2021/07/22 00:18:40;;;;;;;8.27;6.23;;;18.40;99.90;;;;;;5052869;28;20559;-70
2021/07/22 00:21:07;;;;;;;10.93;6.13;;;18.30;99.90;;;;;;5052792;28;20610;-70
2021/07/22 00:23:33;;;;;;;6.63;5.87;;;18.30;99.90;;;;;;5053012;28;20627;-70
2021/07/22 00:26:06;;;;;;;10.10;6.73;;;18.30;99.90;;;;;;5052623;28;20611;-70
2021/07/22 00:28:32;;;;;;;11.40;6.00;;;18.30;99.90;;;;;;5052786;28;20591;-70
2021/07/22 00:30:59;;;;;;;9.10;6.40;;;18.30;99.90;;;;;;5052612;28;20627;-70
2021/07/22 00:33:25;;;;;;;6.03;5.50;;;18.20;99.90;;;;;;5054018;28;20619;-70
2021/07/22 00:35:53;;;;;;;9.73;6.13;;;18.20;99.90;;;;;;5056706;28;21133;-70
2021/07/22 00:38:19;;;;;;;6.93;6.23;;;18.20;99.90;;;;;;5056722;28;20988;-70
2021/07/22 00:40:46;;;;;;;8.00;6.53;;;18.10;99.90;;;;;;5056348;28;20657;-70
2021/07/22 00:43:13;;;;;;;9.80;6.37;;;18.20;99.90;;;;;;5056459;28;20627;-70
2021/07/22 00:45:39;;;;;;;11.40;5.80;;;18.20;99.90;;;;;;5056492;28;20626;-70
2021/07/22 00:48:06;;;;;;;6.80;6.10;;;18.20;99.90;;;;;;5056053;28;20634;-70
2021/07/22 00:50:33;;;;;;;8.60;6.60;;;18.20;99.90;;;;;;5056024;28;20548;-70
2021/07/22 00:52:59;;;;;;;10.87;6.07;;;18.20;99.90;;;;;;5056424;28;20615;-70
2021/07/22 00:55:30;;;;;;;6.80;6.07;;;18.10;99.90;;;;;;5055985;28;20629;-70
2021/07/22 00:57:56;;;;;;;8.00;6.50;;;18.00;99.90;;;;;;5056084;28;21145;-70
2021/07/22 01:00:23;;;;;;;10.97;7.00;;;17.90;99.90;;;;;;5056555;28;20610;-69
2021/07/22 01:02:49;;;;;;;7.20;6.50;;;17.70;99.90;;;;;;5056196;28;20615;-70
2021/07/22 01:05:15;;;;;;;7.40;6.50;;;17.70;99.90;;;;;;5055709;28;20611;-70
2021/07/22 01:07:42;;;;;;;11.70;6.80;;;17.50;99.90;;;;;;5055835;28;20591;-70
2021/07/22 01:10:09;;;;;;;7.43;6.50;;;17.30;99.90;;;;;;5055828;28;20595;-70
2021/07/22 01:12:35;;;;;;;10.10;7.30;;;17.30;99.90;;;;;;5055715;28;21192;-70
2021/07/22 01:15:02;;;;;;;9.07;7.03;;;17.20;99.90;;;;;;5055534;28;20611;-70
2021/07/22 01:17:45;;;;;;;8.10;6.23;;;17.20;99.90;;;;;;5054530;28;20614;-70
2021/07/22 01:20:15;;;;;;;7.97;7.00;;;17.20;99.90;;;;;;5055923;28;21113;-70
2021/07/22 01:22:42;;;;;;;10.93;7.30;;;17.20;99.90;;;;;;5055873;28;20610;-70
2021/07/22 01:25:09;;;;;;;8.77;7.30;;;17.20;99.90;;;;;;5055485;28;20626;-70
2021/07/22 01:27:36;;;;;;;13.60;8.07;;;17.30;99.90;;;;;;5055738;28;20955;-71
2021/07/22 01:30:03;;;;;;;8.17;7.37;;;17.30;99.90;;;;;;5055895;28;20619;-70
2021/07/22 01:32:29;;;;;;;8.97;6.90;;;17.30;99.90;;;;;;5056097;28;21195;-70
2021/07/22 01:34:55;;;;;;;10.10;7.67;;;17.30;99.90;;;;;;5055629;28;20969;-70
2021/07/22 01:37:22;;;;;;;8.40;7.00;;;17.30;99.90;;;;;;5055470;28;20595;-71
2021/07/22 01:39:48;;;;;;;10.53;7.33;;;17.30;99.90;;;;;;5054272;28;20645;-72
2021/07/22 01:42:15;;;;;;;12.97;8.00;;;17.30;99.90;;;;;;5055304;28;20599;-72
2021/07/22 01:44:41;;;;;;;8.60;7.87;;;17.30;99.90;;;;;;5054740;28;20673;-71
2021/07/22 01:47:07;;;;;;;9.73;8.10;;;17.30;99.90;;;;;;5054781;28;21151;-72
2021/07/22 01:49:34;;;;;;;8.20;7.10;;;17.30;99.90;;;;;;5055132;28;20655;-72
2021/07/22 01:52:04;;;;;;;8.77;7.87;;;17.30;99.90;;;;;;5055141;28;20662;-72
2021/07/22 01:54:31;;;;;;;16.50;7.20;;;17.20;99.90;;;;;;5055328;28;20906;-71
2021/07/22 01:57:02;;;;;;;10.23;7.70;;;17.20;99.90;;;;;;5055319;28;20635;-71
2021/07/22 01:59:35;;;;;;;8.10;7.30;;;17.20;99.90;;;;;;5054790;28;20580;-71
2021/07/22 02:02:03;;;;;;;9.30;7.13;;;17.20;99.90;;;;;;5054890;28;20567;-72
2021/07/22 02:04:30;;;;;;;10.70;7.93;;;17.10;99.90;;;;;;5055089;28;20970;-72
2021/07/22 02:06:56;;;;;;;10.63;8.00;;;17.10;99.90;;;;;;5054815;28;20622;-71
2021/07/22 02:09:23;;;;;;;8.73;7.83;;;17.10;99.90;;;;;;5054705;28;20587;-71
2021/07/22 02:11:51;;;;;;;10.03;9.00;;;17.10;99.90;;;;;;5054494;28;20670;-72
2021/07/22 02:14:17;;;;;;;8.77;7.87;;;17.10;99.90;;;;;;5054843;28;20665;-71
2021/07/22 02:16:44;;;;;;;9.77;8.30;;;17.00;99.90;;;;;;5053318;28;20633;-72
2021/07/22 02:19:10;;;;;;;8.77;7.93;;;16.90;99.90;;;;;;5054434;28;20602;-71
2021/07/22 02:21:37;;;;;;;9.80;8.80;;;16.80;99.90;;;;;;5054877;28;21172;-72
2021/07/22 02:24:08;;;;;;;9.80;7.47;;;16.80;99.90;;;;;;5054593;28;21180;-71
2021/07/22 02:26:35;;;;;;;9.67;8.17;;;16.80;99.90;;;;;;5054233;28;20642;-72
2021/07/22 02:29:02;;;;;;;10.60;8.80;;;16.80;99.90;;;;;;5054311;28;20635;-72
2021/07/22 02:31:28;;;;;;;12.50;8.13;;;16.70;99.90;;;;;;5054186;28;20657;-71
2021/07/22 02:33:54;;;;;;;10.37;7.73;;;16.60;99.90;;;;;;5053969;28;20653;-72
2021/07/22 02:36:21;;;;;;;9.33;7.83;;;16.60;99.90;;;;;;5054323;28;20603;-71
2021/07/22 02:38:48;;;;;;;11.37;7.77;;;16.50;99.90;;;;;;5053915;28;21164;-71
2021/07/22 02:41:14;;;;;;;10.53;8.00;;;16.50;99.90;;;;;;5054150;28;20611;-72
2021/07/22 02:43:41;;;;;;;11.77;8.53;;;16.50;99.90;;;;;;5054467;28;20974;-71
2021/07/22 02:46:11;;;;;;;12.50;9.20;;;16.50;99.90;;;;;;5053968;28;20591;-72
2021/07/22 02:48:38;;;;;;;9.70;8.63;;;16.50;99.90;;;;;;5054115;28;20989;-72
2021/07/22 02:51:06;;;;;;;8.17;7.37;;;16.40;99.90;;;;;;5053915;28;21235;-72
2021/07/22 02:53:33;;;;;;;12.40;8.93;;;16.40;99.90;;;;;;5053039;28;20618;-72
2021/07/22 02:56:01;;;;;;;13.10;9.10;;;16.30;99.90;;;;;;5053611;28;20602;-72
2021/07/22 02:58:28;;;;;;;9.67;8.67;;;16.30;99.90;;;;;;5054250;28;20642;-72
2021/07/22 03:00:55;;;;;;;17.57;7.37;;;16.20;99.90;;;;;;5053592;28;21022;-72
2021/07/22 03:03:22;;;;;;;8.63;7.83;;;16.20;99.90;;;;;;5053396;28;21244;-72
2021/07/22 03:05:49;;;;;;;8.97;8.07;;;16.20;99.90;;;;;;5053063;28;20701;-72
2021/07/22 03:08:16;;;;;;;11.07;7.20;;;16.20;99.90;;;;;;5053489;28;21179;-72
2021/07/22 03:10:42;;;;;;;9.30;8.37;;;16.20;99.90;;;;;;5053420;28;20659;-72
2021/07/22 03:13:09;;;;;;;9.40;8.43;;;16.20;99.90;;;;;;5053178;28;20666;-72
2021/07/22 03:15:35;;;;;;;9.40;8.43;;;16.10;99.90;;;;;;5053304;28;20623;-72
2021/07/22 03:18:02;;;;;;;9.50;8.50;;;16.10;99.90;;;;;;5053596;28;20745;-72
2021/07/22 03:20:28;;;;;;;9.50;7.57;;;16.20;99.90;;;;;;5053460;28;21168;-72
2021/07/22 03:22:54;;;;;;;10.17;9.13;;;16.20;99.90;;;;;;5053447;28;20595;-72
2021/07/22 03:25:21;;;;;;;9.67;7.90;;;16.20;99.90;;;;;;5053621;28;20619;-72
2021/07/22 03:27:47;;;;;;;10.60;7.70;;;16.10;99.90;;;;;;5053613;28;20634;-72
2021/07/22 03:30:14;;;;;;;10.17;8.30;;;16.10;99.90;;;;;;5053284;28;21129;-72
2021/07/22 03:32:41;;;;;;;12.03;9.00;;;16.10;99.90;;;;;;5053282;28;20661;-71
2021/07/22 03:35:09;;;;;;;12.07;8.77;;;16.10;99.90;;;;;;5053446;28;21141;-69
2021/07/22 03:37:36;;;;;;;13.20;8.73;;;16.10;99.90;;;;;;5053479;28;20623;-72
2021/07/22 03:40:02;;;;;;;14.03;10.17;;;16.00;99.90;;;;;;5053389;28;21208;-71
2021/07/22 03:42:31;;;;;;;12.37;8.07;;;16.00;99.90;;;;;;5053724;28;21141;-71
2021/07/22 03:44:57;;;;;;;13.07;9.10;;;16.00;99.90;;;;;;5052004;28;21129;-71
2021/07/22 03:47:23;;;;;;;9.87;8.90;;;16.00;99.90;;;;;;5053742;28;21168;-71
2021/07/22 03:49:50;;;;;;;8.40;7.50;;;16.00;99.90;;;;;;5052028;28;20658;-71
2021/07/22 03:52:17;;;;;;;10.17;8.43;;;16.00;99.90;;;;;;5053298;28;20634;-71
2021/07/22 03:54:44;;;;;;;10.17;7.80;;;16.10;99.90;;;;;;5052113;28;20611;-71
2021/07/22 03:57:10;;;;;;;9.03;7.37;;;16.10;99.90;;;;;;5053327;28;20626;-71
2021/07/22 03:59:37;;;;;;;14.07;8.50;;;16.10;99.90;;;;;;5052263;28;20623;-71
2021/07/22 04:02:03;;;;;;;10.53;7.67;;;16.20;99.90;;;;;;5053573;28;20639;-71
2021/07/22 04:04:29;;;;;;;8.40;7.50;;;16.20;99.90;;;;;;5053079;28;20646;-71
2021/07/22 04:06:56;;;;;;;12.97;8.67;;;16.30;99.90;;;;;;5053418;28;20684;-71
2021/07/22 04:09:22;;;;;;;10.43;8.27;;;16.30;99.90;;;;;;5055940;28;20625;-71
2021/07/22 04:11:49;;;;;;;8.93;7.53;;;16.30;99.90;;;;;;5057183;28;20635;-71
2021/07/22 04:14:15;;;;;;;10.80;7.77;;;16.30;99.90;;;;;;5055968;28;20642;-71
2021/07/22 04:16:41;;;;;;;8.53;7.23;;;16.40;99.90;;;;;;5057026;28;20607;-70
2021/07/22 04:19:07;;;;;;;9.90;8.10;;;16.50;99.90;;;;;;5056990;28;20625;-70
2021/07/22 04:21:33;;;;;;;10.67;8.17;;;16.60;99.90;;;;;;5055642;28;20640;-71
2021/07/22 04:24:00;;;;;;;10.60;8.77;;;16.50;99.90;;;;;;5056693;28;20632;-70
2021/07/22 04:26:26;;;;;;;11.00;7.43;;;16.60;99.90;;;;;;5056909;28;21062;-70
2021/07/22 04:28:53;;;;;;;14.80;9.50;;;16.70;99.90;;;;;;5056554;28;20581;-71
2021/07/22 04:31:19;;;;;;;10.77;8.43;;;16.70;99.90;;;;;;5056405;28;20681;-70
2021/07/22 04:33:46;;;;;;;14.80;8.80;;;16.60;99.90;;;;;;5056644;28;20705;-70
2021/07/22 04:36:13;;;;;;;28.73;25.77;;;16.60;99.90;;;;;;5056669;28;20983;-70
2021/07/22 04:38:39;;;;;;;9.10;8.17;;;16.60;99.90;;;;;;5056230;28;20591;-70
2021/07/22 04:41:06;;;;;;;9.53;8.13;;;16.50;99.90;;;;;;5056121;28;20633;-71
2021/07/22 04:43:33;;;;;;;9.30;7.27;;;16.60;99.90;;;;;;5056375;28;20937;-71
2021/07/22 04:46:04;;;;;;;10.97;7.53;;;16.60;99.90;;;;;;5056533;28;20614;-71
2021/07/22 04:48:32;;;;;;;8.87;7.80;;;16.60;99.90;;;;;;5056109;28;20642;-71
2021/07/22 04:51:03;;;;;;;11.07;8.50;;;16.60;99.90;;;;;;5056279;28;20591;-71
2021/07/22 04:53:29;;;;;;;9.13;8.07;;;16.60;99.90;;;;;;5038502;28;20701;-71
2021/07/22 04:55:56;;;;;;;9.60;7.37;;;16.60;99.90;;;;;;5055508;28;20614;-70
2021/07/22 04:58:22;;;;;;;10.47;8.03;;;16.70;99.90;;;;;;5056076;28;20920;-70
2021/07/22 05:00:48;;;;;;;8.17;7.33;;;16.70;99.90;;;;;;5056066;28;20602;-70
2021/07/22 05:03:15;;;;;;;7.77;7.00;;;16.60;99.90;;;;;;5056223;28;20668;-70
2021/07/22 05:05:41;;;;;;;15.53;7.37;;;16.70;99.90;;;;;;5055941;28;20605;-70
2021/07/22 05:08:07;;;;;;;10.57;7.73;;;16.80;99.90;;;;;;5056191;28;21224;-70
2021/07/22 05:10:33;;;;;;;8.33;7.33;;;16.80;99.90;;;;;;5055866;28;20642;-71
2021/07/22 05:13:01;;;;;;;8.43;7.27;;;16.80;99.90;;;;;;5055720;28;20638;-70
2021/07/22 05:15:28;;;;;;;12.80;7.33;;;16.90;99.90;;;;;;5055759;28;20983;-71
2021/07/22 05:17:54;;;;;;;9.00;7.70;;;16.80;99.90;;;;;;5056037;28;20629;-71
2021/07/22 05:20:20;;;;;;;16.80;8.20;;;16.90;99.90;;;;;;5055516;28;20599;-71
2021/07/22 05:22:47;;;;;;;11.83;7.10;;;16.90;99.90;;;;;;5054336;28;21149;-71
2021/07/22 05:25:13;;;;;;;15.67;8.50;;;17.10;99.90;;;;;;5055781;28;20635;-71
2021/07/22 05:27:40;;;;;;;12.27;7.73;;;17.20;99.90;;;;;;5055418;28;20987;-71
2021/07/22 05:30:06;;;;;;;9.23;7.20;;;17.20;99.90;;;;;;5055759;28;20611;-71
2021/07/22 05:32:33;;;;;;;14.10;8.90;;;17.20;99.90;;;;;;5055490;28;20688;-71
2021/07/22 05:35:00;;;;;;;12.73;7.40;;;17.40;99.90;;;;;;5055828;28;20615;-71
2021/07/22 05:37:26;;;;;;;10.17;6.63;;;17.40;99.90;;;;;;5048020;28;20620;-71
2021/07/22 05:39:53;;;;;;;8.37;6.93;;;17.40;99.90;;;;;;5051953;28;20703;-71
2021/07/22 05:42:19;;;;;;;11.10;7.07;;;17.50;99.90;;;;;;5055257;28;20609;-71
2021/07/22 05:44:45;;;;;;;8.20;6.97;;;17.60;99.90;;;;;;5055066;28;20618;-71
2021/07/22 05:47:11;;;;;;;10.40;8.10;;;17.80;99.90;;;;;;5055668;28;20959;-71
2021/07/22 05:49:38;;;;;;;12.23;8.10;;;17.80;99.90;;;;;;5054838;28;20639;-71
2021/07/22 05:52:04;;;;;;;14.23;7.60;;;17.90;99.90;;;;;;5054895;28;20649;-71
2021/07/22 05:54:31;;;;;;;9.30;6.97;;;18.10;99.90;;;;;;5055083;28;20710;-71
2021/07/22 05:56:57;;;;;;;10.20;8.30;;;18.00;99.90;;;;;;5055245;28;20622;-71
2021/07/22 05:59:23;;;;;;;12.73;6.97;;;18.10;99.90;;;;;;5055036;28;20622;-71
2021/07/22 06:01:50;;;;;;;11.03;7.17;;;18.20;99.90;;;;;;5054659;28;20595;-71
2021/07/22 06:04:16;;;;;;;6.97;6.37;;;18.30;99.90;;;;;;5053688;28;20629;-71
2021/07/22 06:06:43;;;;;;;11.20;6.07;;;18.30;99.90;;;;;;5054755;28;20601;-71
2021/07/22 06:09:10;;;;;;;7.23;6.53;;;18.40;99.90;;;;;;5054450;28;20619;-71
2021/07/22 06:11:36;;;;;;;8.53;7.73;;;18.50;99.90;;;;;;5054756;28;20606;-71
2021/07/22 06:14:03;;;;;;;9.23;7.43;;;18.60;99.90;;;;;;5054867;28;20623;-71
2021/07/22 06:16:30;;;;;;;9.03;6.63;;;18.70;99.90;;;;;;5054723;28;20605;-71
2021/07/22 06:18:56;;;;;;;9.70;7.67;;;18.90;99.90;;;;;;5055022;28;20626;-71
2021/07/22 06:21:23;;;;;;;8.87;6.90;;;19.00;99.90;;;;;;5054312;28;20591;-71
2021/07/22 06:23:49;;;;;;;11.30;7.17;;;19.20;99.90;;;;;;5054857;28;20603;-71
2021/07/22 06:26:15;;;;;;;11.13;7.30;;;19.20;99.90;;;;;;5054354;28;20599;-71
2021/07/22 06:28:42;;;;;;;10.37;7.00;;;19.10;99.90;;;;;;5054601;28;20961;-71
2021/07/22 06:31:08;;;;;;;8.73;7.30;;;19.10;99.90;;;;;;5054127;28;20615;-71
2021/07/22 06:33:35;;;;;;;11.90;7.10;;;19.00;99.90;;;;;;5054076;28;20634;-71
2021/07/22 06:36:01;;;;;;;8.03;7.23;;;19.30;99.90;;;;;;5054006;28;21130;-71
2021/07/22 06:38:29;;;;;;;8.27;7.17;;;19.30;99.90;;;;;;5053708;28;20611;-70
2021/07/22 06:40:56;;;;;;;13.13;7.90;;;19.20;99.90;;;;;;5053830;28;20647;-71
2021/07/22 06:43:22;;;;;;;7.43;6.37;;;19.30;99.90;;;;;;5053608;28;21171;-70
2021/07/22 06:45:49;;;;;;;10.53;7.27;;;19.40;99.90;;;;;;5068007;28;20956;-70
2021/07/22 06:48:15;;;;;;;10.37;6.90;;;19.40;99.90;;;;;;5073185;28;20703;-70
2021/07/22 06:50:42;;;;;;;8.10;6.97;;;19.50;99.90;;;;;;5073423;28;20611;-69
2021/07/22 06:53:08;;;;;;;7.70;6.90;;;19.50;99.90;;;;;;5073276;28;20650;-69
2021/07/22 06:55:34;;;;;;;14.53;7.53;;;19.60;99.90;;;;;;5072160;28;21156;-70
2021/07/22 06:58:04;;;;;;;8.53;6.90;;;19.70;99.90;;;;;;5073309;28;20618;-70
2021/07/22 07:00:32;;;;;;;9.23;7.17;;;19.80;99.90;;;;;;5073103;28;20622;-70
2021/07/22 07:03:03;;;;;;;9.87;7.70;;;19.80;99.90;;;;;;5073220;28;20744;-70
2021/07/22 07:05:31;;;;;;;8.00;7.20;;;19.90;99.90;;;;;;5073561;28;20678;-69
2021/07/22 07:07:57;;;;;;;14.10;7.40;;;20.10;99.90;;;;;;5073269;28;21166;-69
2021/07/22 07:10:24;;;;;;;10.67;7.77;;;20.30;99.90;;;;;;5073474;28;20622;-69
2021/07/22 07:12:51;;;;;;;8.67;6.90;;;20.20;99.90;;;;;;5072973;28;21211;-69
2021/07/22 07:15:19;;;;;;;9.07;6.07;;;20.10;99.90;;;;;;5072743;28;20614;-69
2021/07/22 07:17:46;;;;;;;10.50;7.10;;;20.40;99.90;;;;;;5073081;28;20622;-69
2021/07/22 07:20:12;;;;;;;11.70;7.23;;;20.70;99.90;;;;;;5073020;28;20628;-69
2021/07/22 07:22:39;;;;;;;11.23;7.07;;;20.80;99.90;;;;;;5073218;28;20622;-68
2021/07/22 07:25:06;;;;;;;8.07;6.70;;;20.90;99.90;;;;;;5072767;28;20622;-68
2021/07/22 07:27:32;;;;;;;8.80;7.63;;;21.00;99.90;;;;;;5073225;28;21246;-68
2021/07/22 07:29:58;;;;;;;16.00;7.33;;;21.20;99.90;;;;;;5073256;28;20645;-68
2021/07/22 07:32:25;;;;;;;14.90;7.80;;;21.20;99.90;;;;;;5072836;28;20678;-68
2021/07/22 07:34:51;;;;;;;7.80;6.60;;;21.40;99.90;;;;;;5073029;28;20639;-68
2021/07/22 07:37:17;;;;;;;8.43;7.60;;;21.70;99.90;;;;;;5072614;28;20618;-68
2021/07/22 07:39:44;;;;;;;10.23;6.87;;;21.70;99.90;;;;;;5073256;28;20649;-69
2021/07/22 07:42:10;;;;;;;9.77;7.27;;;22.00;99.90;;;;;;5069453;28;20622;-69
2021/07/22 07:44:36;;;;;;;7.73;6.93;;;22.00;99.90;;;;;;5045399;28;20632;-68
2021/07/22 07:47:03;;;;;;;8.43;7.33;;;22.00;99.90;;;;;;5057076;28;20693;-68
2021/07/22 07:49:29;;;;;;;9.60;6.97;;;22.20;99.90;;;;;;5057055;28;20639;-68
2021/07/22 07:51:55;;;;;;;16.20;7.70;;;22.00;99.90;;;;;;5057512;28;20621;-68
2021/07/22 07:54:23;;;;;;;9.00;7.03;;;22.00;99.90;;;;;;5057443;28;20978;-68
2021/07/22 07:56:50;;;;;;;7.63;6.83;;;22.20;99.90;;;;;;5056885;28;20618;-68
2021/07/22 07:59:17;;;;;;;12.00;6.90;;;22.30;99.90;;;;;;5057002;28;20641;-68
2021/07/22 08:01:44;;;;;;;13.30;7.07;;;22.40;99.90;;;;;;5056868;28;20637;-73
2021/07/22 08:04:11;;;;;;;12.93;6.77;;;22.50;99.90;;;;;;5057331;28;21103;-68
2021/07/22 08:06:37;;;;;;;7.97;7.20;;;22.50;99.90;;;;;;5056438;28;20615;-68
2021/07/22 08:09:04;;;;;;;8.93;8.03;;;22.70;99.90;;;;;;5056256;28;20626;-68
2021/07/22 08:11:30;;;;;;;12.53;7.13;;;23.00;99.90;;;;;;5056675;28;20971;-68
2021/07/22 08:13:56;;;;;;;10.47;6.70;;;22.90;99.90;;;;;;5054914;28;20663;-68
2021/07/22 08:16:23;;;;;;;7.37;6.67;;;22.70;99.90;;;;;;5056279;28;20983;-68
2021/07/22 08:18:50;;;;;;;7.57;6.23;;;22.50;99.90;;;;;;5056272;28;20965;-68
2021/07/22 08:21:17;;;;;;;14.50;7.80;;;22.60;99.90;;;;;;5056201;28;21126;-68
2021/07/22 08:23:43;;;;;;;10.93;7.93;;;22.70;99.90;;;;;;5056269;28;20633;-68
2021/07/22 08:26:10;;;;;;;10.60;7.07;;;22.90;99.90;;;;;;5056295;28;20646;-68
2021/07/22 08:28:37;;;;;;;9.30;6.70;;;23.20;99.90;;;;;;5055972;28;20614;-69
2021/07/22 08:31:04;;;;;;;11.30;6.83;;;23.40;99.90;;;;;;5056617;28;20601;-68
2021/07/22 08:33:30;;;;;;;12.30;6.70;;;23.30;99.90;;;;;;5051551;28;21450;-69
2021/07/22 08:35:56;;;;;;;9.07;6.57;;;23.60;99.90;;;;;;5065943;28;20630;-68
2021/07/22 08:38:23;;;;;;;9.13;7.40;;;23.70;99.90;;;;;;5055904;28;20613;-68
2021/07/22 08:40:49;;;;;;;10.17;6.67;;;23.60;99.90;;;;;;5055922;28;20646;-68
2021/07/22 08:43:16;;;;;;;9.00;6.80;;;23.70;99.90;;;;;;5054684;28;20633;-70
2021/07/22 08:45:46;;;;;;;11.70;7.20;;;23.80;99.90;;;;;;5056059;28;20640;-69
2021/07/22 08:48:12;;;;;;;10.60;7.80;;;24.10;99.90;;;;;;5055850;28;21540;-69
2021/07/22 08:50:39;;;;;;;7.50;6.20;;;24.10;99.90;;;;;;5055575;28;20615;-69
2021/07/22 08:53:06;;;;;;;14.07;6.30;;;23.80;99.90;;;;;;5056049;28;20725;-70
2021/07/22 08:55:33;;;;;;;11.93;6.67;;;23.80;99.90;;;;;;5054756;28;20615;-69
2021/07/22 08:58:00;;;;;;;8.93;7.03;;;24.10;99.90;;;;;;5055637;28;20614;-70
2021/07/22 09:00:31;;;;;;;7.70;6.77;;;24.30;99.90;;;;;;5055233;28;20623;-69
2021/07/22 09:02:58;;;;;;;8.20;6.93;;;24.40;99.90;;;;;;5055632;28;20583;-69
2021/07/22 09:05:28;;;;;;;7.30;6.50;;;24.40;99.90;;;;;;5055362;28;20611;-69
2021/07/22 09:07:54;;;;;;;10.80;7.00;;;24.50;99.90;;;;;;5042014;28;20672;-70
2021/07/22 09:10:21;;;;;;;8.70;6.63;;;24.70;99.90;;;;;;5054062;28;21161;-69
2021/07/22 09:12:51;;;;;;;11.80;7.30;;;24.60;99.90;;;;;;5055147;28;20662;-69
2021/07/22 09:15:23;;;;;;;7.60;6.47;;;24.70;99.90;;;;;;5056206;28;21148;-69
2021/07/22 09:17:50;;;;;;;14.73;7.47;;;24.70;99.90;;;;;;5055982;28;20595;-69
2021/07/22 09:20:33;;;;;;;7.60;6.80;;;24.90;99.90;;;;;;5055797;28;21119;-69
2021/07/22 09:23:04;;;;;;;9.43;6.87;;;24.90;99.90;;;;;;5055737;28;21145;-70
2021/07/22 09:25:44;;;;;;;13.20;6.57;;;24.90;99.90;;;;;;5055557;28;20564;-69
2021/07/22 09:28:15;;;;;;;8.80;6.63;;;25.00;99.90;;;;;;5055588;28;20605;-69
2021/07/22 09:31:01;;;;;;;8.00;6.73;;;25.00;99.90;;;;;;5055873;28;20641;-69
2021/07/22 09:33:43;;;;;;;10.40;5.90;;;24.70;99.90;;;;;;5055403;28;20650;-70
2021/07/22 09:36:19;;;;;;;8.13;6.57;;;25.10;99.90;;;;;;5054127;28;20602;-69
2021/07/22 09:38:46;;;;;;;9.67;6.40;;;25.20;99.90;;;;;;5055264;28;20598;-69
2021/07/22 09:41:19;;;;;;;9.13;6.80;;;25.40;99.90;;;;;;5055245;28;20613;-69
2021/07/22 09:43:46;;;;;;;12.03;7.40;;;25.70;99.90;;;;;;5040034;28;20639;-69
2021/07/22 09:46:14;;;;;;;6.87;6.00;;;25.80;99.90;;;;;;5054532;28;20995;-68
2021/07/22 09:49:10;;;;;;;11.73;6.50;;;25.60;99.90;;;;;;5054348;28;20763;-69
2021/07/22 09:51:37;;;;;;;6.90;6.30;;;25.60;99.90;;;;;;5054554;28;20607;-69
2021/07/22 09:54:08;;;;;;;8.70;6.37;;;25.80;99.90;;;;;;5054424;28;20659;-69
2021/07/22 09:56:38;;;;;;;7.57;6.43;;;26.10;99.90;;;;;;5054302;28;20623;-70
2021/07/22 09:59:06;;;;;;;7.77;6.90;;;26.30;99.90;;;;;;5054268;28;21154;-69
2021/07/22 10:01:40;;;;;;;6.60;6.10;;;26.00;99.90;;;;;;5054312;28;20627;-70
2021/07/22 10:04:09;;;;;;;7.90;6.70;;;26.20;99.90;;;;;;5053150;28;20635;-69
2021/07/22 10:06:37;;;;;;;11.33;6.60;;;26.20;99.90;;;;;;5053460;28;20792;-69
2021/07/22 10:09:04;;;;;;;6.43;5.33;;;26.30;99.90;;;;;;5054351;28;20623;-70
2021/07/22 10:11:33;;;;;;;6.17;5.67;;;26.50;99.90;;;;;;5054666;28;20619;-70
2021/07/22 10:14:01;;;;;;;8.60;6.10;;;26.40;99.90;;;;;;5054759;28;20630;-69
2021/07/22 10:16:28;;;;;;;14.70;6.20;;;26.70;99.90;;;;;;5053170;28;21122;-69
2021/07/22 10:19:01;;;;;;;7.40;6.37;;;26.70;99.90;;;;;;5053082;28;20623;-69
2021/07/22 10:21:28;;;;;;;7.30;6.60;;;26.20;99.90;;;;;;5054804;28;20579;-69
2021/07/22 10:23:56;;;;;;;6.30;5.80;;;26.50;99.90;;;;;;5054503;28;20617;-70
2021/07/22 10:26:22;;;;;;;6.60;6.00;;;26.60;99.90;;;;;;5054937;28;20626;-70
2021/07/22 10:28:49;;;;;;;7.30;5.60;;;26.70;99.90;;;;;;5054718;28;21218;-70
2021/07/22 10:31:16;;;;;;;6.10;5.50;;;26.60;99.90;;;;;;5054252;28;20623;-70
2021/07/22 10:33:45;;;;;;;6.37;5.87;;;26.60;99.90;;;;;;5040801;28;21016;-69
2021/07/22 10:36:12;;;;;;;9.83;7.60;;;26.80;99.90;;;;;;5053779;28;20620;-69
2021/07/22 10:38:47;;;;;;;6.83;6.07;;;26.80;99.90;;;;;;5054406;28;20602;-70
2021/07/22 10:41:32;;;;;;;8.30;6.83;;;27.20;99.90;;;;;;5054477;28;20626;-70
2021/07/22 10:43:59;;;;;;;6.83;6.20;;;27.30;99.90;;;;;;5054128;28;20710;-70
2021/07/22 10:46:50;;;;;;;8.63;7.30;;;27.30;99.90;;;;;;5054335;28;20618;-69
2021/07/22 10:49:16;;;;;;;6.20;5.70;;;27.00;99.90;;;;;;5053791;28;20638;-69
2021/07/22 10:51:45;;;;;;;7.63;5.90;;;27.10;99.90;;;;;;5053808;28;20587;-69
2021/07/22 10:54:38;;;;;;;11.00;6.70;;;27.30;99.90;;;;;;5053583;28;20682;-69
2021/07/22 10:57:05;;;;;;;6.90;6.20;;;27.40;99.90;;;;;;5053971;28;20706;-69
2021/07/22 10:59:54;;;;;;;7.90;7.00;;;27.60;99.90;;;;;;5054046;28;20677;-69
2021/07/22 11:02:50;;;;;;;11.93;6.50;;;27.70;99.90;;;;;;5054140;28;20627;-70
2021/07/22 11:05:23;;;;;;;8.43;6.70;;;28.00;99.90;;;;;;5049483;28;20635;-69
2021/07/22 11:08:18;;;;;;;7.43;6.77;;;28.10;99.90;;;;;;5054227;28;20738;-70
2021/07/22 11:10:58;;;;;;;7.23;6.57;;;28.30;99.90;;;;;;5052395;28;20625;-70
2021/07/22 11:13:36;;;;;;;14.33;6.70;;;28.60;99.90;;;;;;5052660;28;20653;-69
2021/07/22 11:16:04;;;;;;;7.07;6.37;;;28.80;99.90;;;;;;5053608;28;20621;-68
2021/07/22 11:18:48;;;;;;;8.17;5.90;;;28.80;99.90;;;;;;5053521;28;21156;-69
2021/07/22 11:21:32;;;;;;;7.47;5.30;;;28.70;99.90;;;;;;5053984;28;20966;-69
2021/07/22 11:24:07;;;;;;;7.23;6.37;;;28.40;99.90;;;;;;5053251;28;20615;-70
2021/07/22 11:26:39;;;;;;;10.20;6.90;;;28.30;99.90;;;;;;5053461;28;20622;-70
2021/07/22 11:29:08;;;;;;;11.53;6.47;;;28.60;99.90;;;;;;5053663;28;20555;-70
2021/07/22 11:31:50;;;;;;;13.47;6.30;;;29.30;99.90;;;;;;5053778;28;20622;-69
2021/07/22 11:34:28;;;;;;;7.00;6.30;;;30.00;99.90;;;;;;5053437;28;20622;-69
2021/07/22 11:36:55;;;;;;;14.00;6.77;;;30.30;99.90;;;;;;5053454;28;20611;-72
2021/07/22 11:39:43;;;;;;;6.27;5.67;;;30.80;99.90;;;;;;5053632;28;20619;-69
2021/07/22 11:42:11;;;;;;;6.63;6.03;;;30.90;99.90;;;;;;5051882;28;20722;-69
2021/07/22 11:44:38;;;;;;;7.03;6.43;;;30.40;99.90;;;;;;5053550;28;20622;-70
2021/07/22 11:47:12;;;;;;;8.47;6.63;;;30.30;99.90;;;;;;5052082;28;20645;-69
2021/07/22 11:49:39;;;;;;;7.67;6.47;;;30.50;99.90;;;;;;5053719;28;20654;-70
2021/07/22 11:52:06;;;;;;;11.93;7.27;;;30.70;99.90;;;;;;5053422;28;20615;-70
2021/07/22 11:54:32;;;;;;;7.70;6.80;;;31.00;99.90;;;;;;5053078;28;20738;-69
2021/07/22 11:56:59;;;;;;;6.73;6.23;;;31.30;99.90;;;;;;5053307;28;20611;-70
2021/07/22 11:59:30;;;;;;;7.47;6.73;;;31.20;99.90;;;;;;5053286;28;20610;-70
2021/07/22 12:01:58;;;;;;;7.70;7.10;;;31.50;99.90;;;;;;5052984;28;20690;-70
2021/07/22 12:04:30;;;;;;;8.97;7.27;;;31.40;99.90;;;;;;5052936;28;20889;-70
2021/07/22 12:06:58;;;;;;;6.50;5.90;;;31.10;99.90;;;;;;5052892;28;20682;-70
2021/07/22 12:09:24;;;;;;;7.37;6.67;;;31.90;99.90;;;;;;5053360;28;20630;-70
2021/07/22 12:12:02;;;;;;;8.17;7.47;;;32.40;99.90;;;;;;5053016;28;21214;-71
2021/07/22 12:14:38;;;;;;;8.90;6.97;;;32.50;1.00;;;;;;5053119;28;21184;-70
2021/07/22 12:17:10;;;;;;;7.97;7.27;;;32.50;1.00;;;;;;5051974;28;20614;-69
2021/07/22 12:19:39;;;;;;;8.60;7.90;;;32.30;1.00;;;;;;5053035;28;20633;-70
2021/07/22 12:22:21;;;;;;;8.00;7.30;;;32.10;1.00;;;;;;5053094;28;20622;-70
2021/07/22 12:24:53;;;;;;;8.30;7.60;;;32.20;1.00;;;;;;5053124;28;21052;-70
2021/07/22 12:27:28;;;;;;;17.30;8.23;;;32.40;1.00;;;;;;5053322;28;20941;-70
2021/07/22 12:29:55;;;;;;;6.90;6.40;;;32.40;1.00;;;;;;5054715;28;21129;-69
2021/07/22 12:32:21;;;;;;;7.03;6.53;;;32.80;1.00;;;;;;5056997;28;20607;-70
2021/07/22 12:34:47;;;;;;;7.37;6.67;;;32.60;1.00;;;;;;5056873;28;20652;-69
2021/07/22 12:37:14;;;;;;;7.60;6.90;;;32.40;1.00;;;;;;5056565;28;20698;-70
2021/07/22 12:39:40;;;;;;;8.33;7.50;;;32.30;1.00;;;;;;5056507;28;20634;-70
2021/07/22 12:42:14;;;;;;;8.73;7.33;;;33.00;1.00;;;;;;5056566;28;20951;-70
2021/07/22 12:44:47;;;;;;;7.20;6.70;;;32.20;1.00;;;;;;5055194;28;21236;-70
2021/07/22 12:47:29;;;;;;;7.10;6.40;;;32.70;1.00;;;;;;5056524;28;20718;-69
2021/07/22 12:49:57;;;;;;;7.83;7.13;;;33.40;1.00;;;;;;5056324;28;20642;-69